TimeCDT,TemperatureF,Dew PointF,Humidity,Sea Level PressureIn,VisibilityMPH,Wind Direction,Wind SpeedMPH,Gust SpeedMPH,PrecipitationIn,Events,Conditions,WindDirDegrees,DateUTC
12:53 AM,75.0,69.1,82,30.14,10.0,Calm,Calm,-,N/A,,Clear,0,2013-09-11 05:53:00
1:53 AM,75.0,68.0,79,30.13,10.0,ENE,3.5,-,N/A,,Clear,70,2013-09-11 06:53:00
2:53 AM,73.9,68.0,82,30.13,10.0,NE,4.6,-,N/A,,Clear,50,2013-09-11 07:53:00
3:53 AM,72.0,68.0,87,30.14,10.0,ENE,3.5,-,N/A,,Clear,70,2013-09-11 08:53:00
4:53 AM,71.1,68.0,90,30.14,10.0,East,4.6,-,N/A,,Clear,90,2013-09-11 09:53:00
5:53 AM,71.1,68.0,90,30.15,10.0,East,6.9,-,N/A,,Clear,90,2013-09-11 10:53:00
6:53 AM,71.1,66.9,87,30.17,10.0,East,5.8,-,N/A,,Clear,90,2013-09-11 11:53:00
7:53 AM,75.9,69.1,79,30.19,10.0,East,4.6,-,N/A,,Clear,80,2013-09-11 12:53:00
8:53 AM,80.1,70.0,71,30.19,10.0,East,6.9,-,N/A,,Clear,80,2013-09-11 13:53:00
9:53 AM,84.0,70.0,63,30.19,10.0,East,9.2,-,N/A,,Clear,100,2013-09-11 14:53:00
10:53 AM,87.1,68.0,53,30.17,10.0,ESE,9.2,-,N/A,,Clear,110,2013-09-11 15:53:00
11:53 AM,89.1,66.9,48,30.16,10.0,East,10.4,19.6,N/A,,Partly Cloudy,90,2013-09-11 16:53:00
12:53 PM,91.0,68.0,47,30.14,10.0,NE,11.5,-,N/A,,Scattered Clouds,50,2013-09-11 17:53:00
1:53 PM,91.0,66.0,44,30.12,10.0,Variable,6.9,-,N/A,,Scattered Clouds,0,2013-09-11 18:53:00
2:53 PM,93.0,64.0,38,30.10,10.0,ESE,8.1,-,N/A,,Partly Cloudy,110,2013-09-11 19:53:00
3:53 PM,91.9,64.0,39,30.08,10.0,SE,9.2,-,N/A,,Partly Cloudy,130,2013-09-11 20:53:00
4:53 PM,91.0,63.0,39,30.07,10.0,East,5.8,-,N/A,,Partly Cloudy,100,2013-09-11 21:53:00
5:53 PM,90.0,63.0,40,30.07,10.0,SE,4.6,-,N/A,,Scattered Clouds,130,2013-09-11 22:53:00
6:53 PM,82.9,64.9,54,30.07,10.0,Calm,Calm,-,N/A,,Clear,0,2013-09-11 23:53:00
7:53 PM,81.0,64.9,58,30.08,10.0,Calm,Calm,-,N/A,,Clear,0,2013-09-12 00:53:00
8:53 PM,78.1,66.0,66,30.09,10.0,Calm,Calm,-,N/A,,Clear,0,2013-09-12 01:53:00
9:53 PM,75.0,66.9,76,30.09,10.0,Calm,Calm,-,N/A,,Clear,0,2013-09-12 02:53:00
10:53 PM,73.9,66.9,79,30.09,10.0,Calm,Calm,-,N/A,,Clear,0,2013-09-12 03:53:00
11:53 PM,72.0,68.0,87,30.08,10.0,Calm,Calm,-,N/A,,Clear,0,2013-09-12 04:53:00